createdAt,value
2019-04-27T00:00:24.069Z,88.21
2019-04-27T00:01:24.054Z,88.51
2019-04-27T00:02:26.547Z,88.51
2019-04-27T00:03:24.066Z,88.96
2019-04-27T00:04:25.328Z,89.17
2019-04-27T00:05:26.690Z,89.17
2019-04-27T00:06:25.007Z,88.96
2019-04-27T00:07:24.191Z,89.17
2019-04-27T00:08:24.088Z,88.96
2019-04-27T00:09:23.971Z,88.96
2019-04-27T00:10:27.006Z,88.76
2019-04-27T00:11:23.957Z,88.24
2019-04-27T00:12:26.408Z,87.84
2019-04-27T00:13:23.944Z,87.94
2019-04-27T00:14:24.002Z,88.04
2019-04-27T00:15:24.721Z,87.84
2019-04-27T00:16:24.914Z,87.94
2019-04-27T00:17:41.164Z,88.04
2019-04-27T00:18:24.904Z,88.24
2019-04-27T00:19:27.331Z,88.24
2019-04-27T00:20:24.850Z,88.35
2019-04-27T00:21:23.854Z,88.14
2019-04-27T00:22:23.835Z,87.94
2019-04-27T00:23:23.832Z,87.94
2019-04-27T00:24:23.836Z,87.84
2019-04-27T00:25:23.823Z,88.04
2019-04-27T00:26:23.795Z,88.08
2019-04-27T00:27:23.783Z,87.94
2019-04-27T00:28:23.786Z,87.53
2019-04-27T00:29:25.826Z,87.84
2019-04-27T00:30:23.755Z,87.77
2019-04-27T00:31:23.740Z,87.84
2019-04-27T00:32:23.729Z,88.08
2019-04-27T00:33:23.896Z,88.29
2019-04-27T00:34:23.731Z,87.94
2019-04-27T00:35:23.707Z,87.94
2019-04-27T00:36:23.690Z,87.98
2019-04-27T00:37:23.789Z,87.94
2019-04-27T00:38:23.668Z,87.98
2019-04-27T00:39:23.650Z,87.73
2019-04-27T00:40:23.700Z,88.18
2019-04-27T00:41:24.265Z,88.18
2019-04-27T00:42:23.623Z,88.39
2019-04-27T00:43:23.614Z,88.29
2019-04-27T00:44:23.805Z,88.49
2019-04-27T00:45:23.629Z,88.08
2019-04-27T00:46:23.571Z,87.98
2019-04-27T00:47:23.880Z,87.77
2019-04-27T00:48:23.554Z,87.67
2019-04-27T00:49:23.886Z,87.67
2019-04-27T00:50:23.556Z,87.88
2019-04-27T00:51:23.540Z,88.08
2019-04-27T00:52:24.034Z,88.18
2019-04-27T00:53:23.587Z,88.08
2019-04-27T00:54:23.863Z,88.18
2019-04-27T00:55:23.502Z,88.29
2019-04-27T00:56:23.588Z,88.29
2019-04-27T00:57:24.511Z,88.29
2019-04-27T00:58:23.455Z,88.39
2019-04-27T00:59:23.819Z,88.43
2019-04-27T01:00:23.579Z,88.53
2019-04-27T01:01:23.434Z,88.74
2019-04-27T01:02:23.415Z,88.84
2019-04-27T01:03:23.383Z,89.04
2019-04-27T01:04:23.741Z,89.04
2019-04-27T01:05:23.394Z,89.04
2019-04-27T01:06:23.451Z,88.84
2019-04-27T01:07:25.027Z,88.84
2019-04-27T01:08:23.341Z,88.84
2019-04-27T01:09:23.722Z,88.53
2019-04-27T01:10:23.407Z,88.43
2019-04-27T01:11:24.893Z,88.23
2019-04-27T01:12:23.710Z,88.12
2019-04-27T01:13:23.288Z,88.12
2019-04-27T01:14:23.263Z,88.23
2019-04-27T01:15:23.820Z,88.33
2019-04-27T01:16:24.239Z,88.33
2019-04-27T01:17:23.246Z,88.23
2019-04-27T01:18:23.221Z,88.23
2019-04-27T01:19:23.224Z,88.53
2019-04-27T01:20:23.208Z,88.64
2019-04-27T01:21:23.194Z,88.74
2019-04-27T01:22:23.215Z,88.74
2019-04-27T01:23:23.172Z,88.64
2019-04-27T01:24:23.161Z,88.64
2019-04-27T01:25:23.162Z,88.84
2019-04-27T01:26:23.132Z,88.84
2019-04-27T01:27:23.121Z,88.95
2019-04-27T01:28:23.142Z,88.84
2019-04-27T01:29:23.110Z,88.84
2019-04-27T01:30:23.091Z,88.89
2019-04-27T01:31:23.093Z,89.09
2019-04-27T01:32:23.075Z,88.74
2019-04-27T01:33:23.091Z,88.78
2019-04-27T01:34:23.052Z,88.64
2019-04-27T01:35:23.052Z,88.43
2019-04-27T01:36:23.034Z,88.43
2019-04-27T01:37:23.029Z,88.53
2019-04-27T01:38:23.023Z,88.33
2019-04-27T01:39:23.012Z,88.33
2019-04-27T01:40:22.991Z,88.23
2019-04-27T01:41:22.983Z,88.12
2019-04-27T01:42:22.971Z,88.12
2019-04-27T01:43:22.965Z,88.12
2019-04-27T01:44:22.972Z,88.27
2019-04-27T01:45:22.940Z,88.27
2019-04-27T01:46:22.931Z,87.92
2019-04-27T01:47:22.923Z,87.61
2019-04-27T01:48:25.807Z,87.30
2019-04-27T01:49:22.914Z,86.89
2019-04-27T01:50:22.893Z,86.89
2019-04-27T01:51:22.864Z,86.99
2019-04-27T01:52:22.861Z,87.20
2019-04-27T01:53:22.851Z,86.89
2019-04-27T01:54:22.859Z,86.99
2019-04-27T01:55:22.838Z,87.10
2019-04-27T01:56:22.821Z,87.20
2019-04-27T01:57:22.804Z,87.40
2019-04-27T01:58:22.815Z,87.30
2019-04-27T01:59:22.780Z,87.10
2019-04-27T02:00:22.801Z,87.10
2019-04-27T02:01:22.791Z,87.10
2019-04-27T02:02:22.752Z,87.10
2019-04-27T02:03:22.813Z,86.79
2019-04-27T02:04:22.733Z,86.38
2019-04-27T02:05:22.719Z,86.27
2019-04-27T02:06:22.719Z,86.58
2019-04-27T02:07:22.707Z,86.58
2019-04-27T02:08:22.691Z,86.89
2019-04-27T02:09:22.681Z,86.89
2019-04-27T02:10:22.692Z,86.99
2019-04-27T02:11:22.649Z,86.99
2019-04-27T02:12:22.643Z,87.10
2019-04-27T02:13:22.631Z,86.99
2019-04-27T02:14:22.653Z,86.99
2019-04-27T02:15:22.621Z,87.20
2019-04-27T02:16:22.632Z,86.99
2019-04-27T02:17:22.597Z,86.89
2019-04-27T02:18:34.628Z,86.79
2019-04-27T02:19:23.559Z,86.79
2019-04-27T02:20:22.559Z,86.99
2019-04-27T02:21:22.558Z,86.89
2019-04-27T02:22:22.561Z,87.24
2019-04-27T02:23:22.520Z,87.24
2019-04-27T02:24:22.528Z,87.24
2019-04-27T02:25:22.500Z,87.24
2019-04-27T02:26:22.510Z,87.34
2019-04-27T02:27:22.490Z,87.45
2019-04-27T02:28:22.471Z,87.55
2019-04-27T02:29:22.465Z,87.65
2019-04-27T02:30:22.453Z,87.65
2019-04-27T02:31:22.437Z,87.65
2019-04-27T02:32:22.449Z,87.65
2019-04-27T02:33:22.417Z,87.90
2019-04-27T02:34:22.407Z,87.90
2019-04-27T02:35:22.411Z,88.10
2019-04-27T02:36:22.388Z,88.10
2019-04-27T02:37:22.390Z,88.10
2019-04-27T02:38:22.395Z,88.20
2019-04-27T02:39:22.360Z,88.31
2019-04-27T02:40:22.348Z,88.31
2019-04-27T02:41:22.342Z,88.31
2019-04-27T02:42:22.351Z,88.51
2019-04-27T02:43:22.317Z,88.62
2019-04-27T02:44:22.327Z,88.72
2019-04-27T02:45:22.362Z,88.76
2019-04-27T02:46:22.277Z,88.96
2019-04-27T02:47:22.301Z,89.28
2019-04-27T02:48:22.269Z,89.17
2019-04-27T02:49:22.269Z,89.28
2019-04-27T02:50:22.239Z,89.48
2019-04-27T02:51:22.217Z,89.58
2019-04-27T02:52:22.208Z,89.79
2019-04-27T02:53:22.201Z,89.73
2019-04-27T02:54:22.215Z,89.94
2019-04-27T02:55:22.176Z,89.73
2019-04-27T02:56:22.177Z,89.58
2019-04-27T02:57:22.159Z,89.58
2019-04-27T02:58:22.147Z,89.58
2019-04-27T02:59:22.179Z,89.48
2019-04-27T03:00:22.127Z,89.48
2019-04-27T03:01:22.128Z,89.28
2019-04-27T03:02:22.109Z,89.07
2019-04-27T03:03:22.088Z,89.17
2019-04-27T03:04:22.107Z,89.28
2019-04-27T03:05:22.078Z,89.28
2019-04-27T03:06:22.060Z,89.38
2019-04-27T03:07:22.061Z,89.28
2019-04-27T03:08:22.039Z,89.28
2019-04-27T03:09:22.028Z,89.28
2019-04-27T03:10:22.027Z,89.07
2019-04-27T03:11:23.483Z,88.86
2019-04-27T03:12:21.997Z,88.96
2019-04-27T03:13:22.008Z,88.86
2019-04-27T03:14:32.638Z,88.76
2019-04-27T03:15:23.422Z,88.86
2019-04-27T03:16:21.953Z,88.96
2019-04-27T03:17:22.838Z,89.07
2019-04-27T03:18:21.924Z,88.96
2019-04-27T03:19:22.136Z,88.96
2019-04-27T03:20:21.907Z,88.86
2019-04-27T03:21:21.907Z,88.96
2019-04-27T03:22:21.899Z,88.96
2019-04-27T03:23:21.866Z,88.96
2019-04-27T03:24:23.001Z,88.86
2019-04-27T03:25:21.875Z,88.45
2019-04-27T03:26:21.853Z,88.20
2019-04-27T03:27:21.830Z,87.79
2019-04-27T03:28:21.964Z,87.79
2019-04-27T03:29:22.967Z,87.79
2019-04-27T03:30:23.396Z,87.90
2019-04-27T03:31:22.014Z,88.10
2019-04-27T03:32:23.182Z,88.10
2019-04-27T03:33:22.710Z,87.90
2019-04-27T03:34:22.557Z,87.79
2019-04-27T03:35:23.081Z,87.79
2019-04-27T03:36:21.921Z,87.79
2019-04-27T03:37:21.726Z,87.69
2019-04-27T03:38:21.713Z,87.69
2019-04-27T03:39:21.719Z,87.38
2019-04-27T03:40:21.695Z,87.18
2019-04-27T03:41:21.702Z,87.18
2019-04-27T03:42:21.675Z,87.28
2019-04-27T03:43:21.677Z,87.07
2019-04-27T03:44:21.645Z,87.04
2019-04-27T03:45:21.643Z,87.07
2019-04-27T03:46:21.670Z,87.18
2019-04-27T03:47:21.604Z,87.18
2019-04-27T03:48:21.621Z,87.28
2019-04-27T03:49:35.131Z,86.93
2019-04-27T03:50:22.593Z,87.13
2019-04-27T03:51:21.584Z,87.18
2019-04-27T03:52:21.624Z,87.38
2019-04-27T03:53:23.214Z,87.49
2019-04-27T03:54:22.219Z,87.69
2019-04-27T03:55:22.183Z,88.00
2019-04-27T03:56:21.857Z,87.90
2019-04-27T03:57:21.999Z,88.10
2019-04-27T03:58:21.879Z,88.31
2019-04-27T03:59:21.686Z,88.20
2019-04-27T04:00:21.550Z,88.31
2019-04-27T04:01:21.472Z,88.56
2019-04-27T04:02:21.529Z,88.66
2019-04-27T04:03:21.560Z,88.76
2019-04-27T04:04:21.584Z,88.86
2019-04-27T04:05:21.594Z,88.96
2019-04-27T04:06:21.467Z,89.17
2019-04-27T04:07:21.483Z,89.17
2019-04-27T04:08:21.433Z,88.96
2019-04-27T04:09:21.512Z,88.86
2019-04-27T04:10:21.466Z,89.07
2019-04-27T04:11:21.524Z,89.17
2019-04-27T04:12:21.539Z,89.17
2019-04-27T04:13:22.643Z,89.17
2019-04-27T04:14:21.368Z,89.38
2019-04-27T04:15:21.383Z,89.28
2019-04-27T04:16:21.407Z,89.48
2019-04-27T04:17:21.440Z,89.58
2019-04-27T04:18:21.349Z,89.69
2019-04-27T04:19:21.342Z,89.58
2019-04-27T04:20:21.406Z,89.58
2019-04-27T04:21:21.272Z,89.58
2019-04-27T04:22:21.317Z,89.58
2019-04-27T04:23:21.306Z,89.58
2019-04-27T04:24:21.286Z,89.69
2019-04-27T04:25:21.282Z,89.48
2019-04-27T04:26:21.250Z,89.28
2019-04-27T04:27:21.219Z,89.17
2019-04-27T04:28:21.258Z,88.92
2019-04-27T04:29:21.272Z,88.72
2019-04-27T04:30:21.231Z,88.62
2019-04-27T04:31:21.185Z,88.51
2019-04-27T04:32:21.167Z,88.41
2019-04-27T04:33:21.323Z,88.20
2019-04-27T04:34:21.214Z,88.10
2019-04-27T04:35:21.592Z,88.00
2019-04-27T04:36:21.131Z,87.85
2019-04-27T04:37:21.223Z,87.85
2019-04-27T04:38:21.146Z,87.85
2019-04-27T04:39:21.096Z,87.75
2019-04-27T04:40:23.082Z,87.75
2019-04-27T04:41:21.026Z,87.85
2019-04-27T04:42:21.053Z,87.75
2019-04-27T04:43:21.120Z,87.55
2019-04-27T04:44:21.143Z,87.45
2019-04-27T04:45:21.058Z,87.30
2019-04-27T04:46:23.017Z,87.30
2019-04-27T04:47:21.030Z,87.20
2019-04-27T04:48:21.107Z,87.20
2019-04-27T04:49:21.006Z,86.99
2019-04-27T04:50:22.806Z,86.89
2019-04-27T04:51:21.028Z,86.99
2019-04-27T04:52:20.919Z,86.75
2019-04-27T04:53:20.980Z,86.54
2019-04-27T04:54:24.420Z,86.33
2019-04-27T04:55:21.123Z,86.24
2019-04-27T04:56:21.007Z,86.09
2019-04-27T04:57:21.853Z,86.30
2019-04-27T04:58:21.202Z,86.19
2019-04-27T04:59:20.987Z,85.89
2019-04-27T05:00:20.919Z,85.47
2019-04-27T05:01:20.889Z,85.47
2019-04-27T05:02:21.030Z,85.54
2019-04-27T05:03:21.856Z,85.23
2019-04-27T05:04:20.950Z,85.03
2019-04-27T05:05:21.346Z,84.58
2019-04-27T05:06:20.816Z,84.03
2019-04-27T05:07:20.787Z,82.86
2019-04-27T05:08:20.772Z,81.15
2019-04-27T05:09:20.814Z,79.23
2019-04-27T05:10:20.733Z,77.52
2019-04-27T05:11:20.723Z,75.92
2019-04-27T05:12:20.868Z,75.34
2019-04-27T05:13:20.830Z,75.75
2019-04-27T05:14:20.720Z,75.65
2019-04-27T05:15:20.864Z,75.51
2019-04-27T05:16:20.670Z,75.10
2019-04-27T05:17:20.663Z,75.68
2019-04-27T05:18:20.715Z,76.84
2019-04-27T05:19:20.664Z,77.90
2019-04-27T05:20:24.469Z,79.16
2019-04-27T05:21:21.625Z,79.57
2019-04-27T05:22:20.652Z,80.53
2019-04-27T05:23:20.666Z,80.94
2019-04-27T05:24:20.656Z,81.24
2019-04-27T05:25:20.702Z,81.49
2019-04-27T05:26:20.793Z,81.38
2019-04-27T05:27:20.543Z,81.45
2019-04-27T05:28:20.546Z,81.04
2019-04-27T05:29:20.541Z,81.35
2019-04-27T05:30:20.502Z,81.56
2019-04-27T05:31:20.525Z,81.24
2019-04-27T05:32:20.764Z,81.24
2019-04-27T05:33:20.514Z,81.15
2019-04-27T05:34:20.484Z,80.94
2019-04-27T05:35:20.446Z,81.59
2019-04-27T05:36:20.436Z,81.38
2019-04-27T05:37:27.539Z,81.70
2019-04-27T05:38:21.488Z,81.79
2019-04-27T05:39:24.826Z,81.70
2019-04-27T05:40:22.140Z,81.79
2019-04-27T05:41:20.579Z,81.65
2019-04-27T05:42:20.474Z,82.21
2019-04-27T05:43:20.471Z,82.00
2019-04-27T05:44:20.845Z,81.70
2019-04-27T05:45:22.777Z,82.00
2019-04-27T05:46:20.357Z,81.59
2019-04-27T05:47:20.426Z,81.90
2019-04-27T05:48:27.382Z,81.86
2019-04-27T05:49:21.328Z,81.45
2019-04-27T05:50:22.018Z,82.48
2019-04-27T05:51:20.344Z,81.86
2019-04-27T05:52:20.357Z,81.96
2019-04-27T05:53:20.330Z,81.56
2019-04-27T05:54:20.282Z,81.65
2019-04-27T05:55:20.242Z,81.76
2019-04-27T05:56:21.655Z,81.86
2019-04-27T05:57:20.307Z,82.07
2019-04-27T05:58:20.291Z,82.48
2019-04-27T05:59:20.270Z,81.86
2019-04-27T06:00:20.294Z,81.45
2019-04-27T06:01:20.254Z,81.35
2019-04-27T06:02:20.339Z,81.76
2019-04-27T06:03:21.040Z,81.62
2019-04-27T06:04:20.120Z,81.72
2019-04-27T06:05:22.631Z,81.31
2019-04-27T06:06:20.108Z,81.41
2019-04-27T06:07:20.109Z,81.72
2019-04-27T06:08:21.095Z,81.31
2019-04-27T06:09:20.065Z,81.10
2019-04-27T06:10:20.061Z,81.48
2019-04-27T06:11:20.050Z,81.17
2019-04-27T06:12:20.048Z,81.68
2019-04-27T06:13:20.060Z,80.87
2019-04-27T06:14:20.020Z,81.07
2019-04-27T06:15:20.036Z,80.97
2019-04-27T06:16:19.989Z,80.87
2019-04-27T06:17:20.000Z,80.76
2019-04-27T06:18:20.796Z,80.66
2019-04-27T06:19:20.024Z,81.07
2019-04-27T06:20:19.962Z,81.17
2019-04-27T06:21:19.927Z,81.27
2019-04-27T06:22:19.933Z,81.38
2019-04-27T06:23:20.971Z,80.76
2019-04-27T06:24:19.946Z,80.56
2019-04-27T06:25:21.571Z,80.76
2019-04-27T06:26:20.253Z,80.97
2019-04-27T06:27:21.095Z,80.46
2019-04-27T06:28:19.857Z,80.15
2019-04-27T06:29:19.877Z,79.94
2019-04-27T06:30:19.840Z,80.15
2019-04-27T06:31:19.841Z,80.11
2019-04-27T06:32:19.822Z,80.11
2019-04-27T06:33:29.629Z,80.93
2019-04-27T06:34:20.841Z,80.93
2019-04-27T06:35:19.794Z,80.25
2019-04-27T06:36:20.035Z,80.66
2019-04-27T06:37:21.588Z,80.76
2019-04-27T06:38:19.748Z,81.38
2019-04-27T06:39:20.600Z,81.07
2019-04-27T06:40:19.718Z,81.13
2019-04-27T06:41:19.718Z,80.62
2019-04-27T06:42:20.790Z,80.32
2019-04-27T06:43:19.698Z,80.01
2019-04-27T06:44:19.768Z,80.21
2019-04-27T06:45:19.773Z,79.70
2019-04-27T06:46:20.020Z,80.83
2019-04-27T06:47:19.655Z,80.42
2019-04-27T06:48:19.635Z,80.11
2019-04-27T06:49:19.644Z,81.03
2019-04-27T06:50:19.669Z,80.11
2019-04-27T06:51:19.674Z,80.18
2019-04-27T06:52:19.657Z,79.87
2019-04-27T06:53:19.588Z,79.19
2019-04-27T06:54:21.380Z,79.77
2019-04-27T06:55:19.567Z,79.19
2019-04-27T06:56:19.559Z,79.60
2019-04-27T06:57:19.547Z,80.89
2019-04-27T06:58:20.150Z,80.32
2019-04-27T06:59:19.537Z,80.07
2019-04-27T07:00:19.504Z,80.18
2019-04-27T07:01:19.506Z,80.48
2019-04-27T07:02:19.494Z,80.58
2019-04-27T07:03:19.498Z,80.38
2019-04-27T07:04:19.688Z,80.18
2019-04-27T07:05:20.447Z,79.91
2019-04-27T07:06:19.461Z,80.32
2019-04-27T07:07:19.594Z,80.52
2019-04-27T07:08:19.415Z,81.13
2019-04-27T07:09:19.621Z,81.03
2019-04-27T07:10:19.448Z,80.83
2019-04-27T07:11:19.800Z,80.52
2019-04-27T07:12:19.396Z,81.74
2019-04-27T07:13:19.661Z,81.58
2019-04-27T07:14:19.815Z,81.99
2019-04-27T07:15:20.495Z,81.99
2019-04-27T07:16:19.713Z,81.99
2019-04-27T07:17:19.363Z,83.42
2019-04-27T07:18:19.312Z,83.22
2019-04-27T07:19:19.314Z,83.93
2019-04-27T07:20:19.342Z,84.69
2019-04-27T07:21:24.615Z,84.28
2019-04-27T07:22:20.276Z,84.48
2019-04-27T07:23:20.938Z,85.50
2019-04-27T07:24:19.749Z,84.89
2019-04-27T07:25:19.245Z,85.10
2019-04-27T07:26:21.236Z,85.61
2019-04-27T07:27:21.243Z,86.02
2019-04-27T07:28:19.244Z,86.22
2019-04-27T07:29:19.603Z,86.32
2019-04-27T07:30:19.245Z,87.35
2019-04-27T07:31:19.353Z,87.76
2019-04-27T07:32:19.378Z,87.49
2019-04-27T07:33:19.174Z,88.00
2019-04-27T07:34:19.200Z,88.41
2019-04-27T07:35:19.693Z,89.23
2019-04-27T07:36:19.135Z,88.51
2019-04-27T07:37:19.547Z,88.71
2019-04-27T07:38:19.267Z,90.25
2019-04-27T07:39:19.398Z,88.92
2019-04-27T07:40:19.065Z,89.64
2019-04-27T07:41:19.572Z,89.68
2019-04-27T07:42:20.771Z,90.81
2019-04-27T07:43:21.120Z,90.39
2019-04-27T07:44:20.397Z,89.98
2019-04-27T07:45:19.533Z,89.42
2019-04-27T07:46:19.108Z,90.81
2019-04-27T07:47:19.542Z,91.73
2019-04-27T07:48:19.007Z,92.44
2019-04-27T07:49:19.081Z,91.97
2019-04-27T07:50:19.397Z,91.56
2019-04-27T07:51:31.175Z,91.87
2019-04-27T07:52:20.511Z,91.77
2019-04-27T07:53:19.382Z,92.90
2019-04-27T07:54:19.009Z,93.10
2019-04-27T07:55:18.952Z,93.30
2019-04-27T07:56:19.142Z,93.30
2019-04-27T07:57:19.782Z,94.02
2019-04-27T07:58:21.903Z,93.62
2019-04-27T07:59:18.948Z,93.86
2019-04-27T08:00:19.107Z,93.96
2019-04-27T08:01:19.255Z,94.27
2019-04-27T08:02:19.158Z,94.48
2019-04-27T08:03:19.545Z,93.96
2019-04-27T08:04:20.166Z,93.92
2019-04-27T08:05:19.228Z,94.02
2019-04-27T08:06:19.014Z,95.05
2019-04-27T08:07:19.692Z,95.05
2019-04-27T08:08:19.058Z,95.31
2019-04-27T08:09:19.139Z,94.80
2019-04-27T08:10:20.430Z,93.98
2019-04-27T08:11:19.328Z,93.82
2019-04-27T08:12:20.742Z,94.23
2019-04-27T08:13:19.470Z,95.25
2019-04-27T08:14:18.734Z,94.95
2019-04-27T08:15:18.990Z,95.66
2019-04-27T08:16:20.634Z,95.76
2019-04-27T08:17:19.173Z,95.81
2019-04-27T08:18:19.028Z,95.50
2019-04-27T08:19:19.671Z,95.50
2019-04-27T08:20:20.850Z,96.01
2019-04-27T08:21:18.923Z,95.40
2019-04-27T08:22:19.435Z,95.50
2019-04-27T08:23:19.523Z,95.81
2019-04-27T08:24:19.429Z,95.50
2019-04-27T08:25:19.014Z,95.70
2019-04-27T08:26:18.760Z,95.54
2019-04-27T08:27:19.438Z,95.24
2019-04-27T08:28:18.825Z,94.83
2019-04-27T08:29:18.577Z,94.37
2019-04-27T08:30:19.445Z,94.07
2019-04-27T08:31:18.757Z,94.58
2019-04-27T08:32:19.571Z,94.43
2019-04-27T08:33:19.087Z,94.12
2019-04-27T08:34:18.513Z,93.51
2019-04-27T08:35:19.484Z,93.71
2019-04-27T08:36:19.042Z,94.23
2019-04-27T08:37:18.795Z,94.74
2019-04-27T08:38:19.042Z,94.70
2019-04-27T08:39:18.689Z,94.90
2019-04-27T08:40:19.259Z,94.64
2019-04-27T08:41:21.040Z,94.43
2019-04-27T08:42:19.443Z,92.90
2019-04-27T08:43:19.154Z,93.82
2019-04-27T08:44:19.424Z,93.82
2019-04-27T08:45:19.324Z,94.08
2019-04-27T08:46:18.706Z,93.98
2019-04-27T08:47:19.469Z,93.88
2019-04-27T08:48:33.408Z,93.67
2019-04-27T08:49:19.318Z,92.75
2019-04-27T08:50:19.055Z,93.10
2019-04-27T08:51:19.671Z,93.30
2019-04-27T08:52:19.415Z,93.16
2019-04-27T08:53:18.671Z,93.26
2019-04-27T08:54:19.255Z,93.26
2019-04-27T08:55:19.623Z,93.98
2019-04-27T08:56:19.391Z,94.39
2019-04-27T08:57:18.809Z,93.88
2019-04-27T08:58:19.683Z,93.47
2019-04-27T08:59:19.431Z,92.44
2019-04-27T09:00:19.319Z,92.81
2019-04-27T09:01:18.347Z,92.50
2019-04-27T09:02:19.646Z,92.97
2019-04-27T09:03:19.360Z,93.07
2019-04-27T09:04:20.078Z,92.05
2019-04-27T09:05:19.287Z,92.56
2019-04-27T09:06:19.029Z,93.28
2019-04-27T09:07:19.706Z,92.87
2019-04-27T09:08:18.955Z,93.18
2019-04-27T09:09:19.259Z,92.87
2019-04-27T09:10:18.766Z,93.48
2019-04-27T09:11:20.424Z,93.13
2019-04-27T09:12:19.619Z,93.74
2019-04-27T09:13:19.467Z,92.62
2019-04-27T09:14:19.297Z,93.95
2019-04-27T09:15:19.259Z,92.21
2019-04-27T09:16:18.636Z,93.13
2019-04-27T09:17:19.318Z,92.99
2019-04-27T09:18:19.190Z,92.58
2019-04-27T09:19:18.842Z,93.03
2019-04-27T09:20:18.692Z,91.80
2019-04-27T09:21:19.160Z,93.44
2019-04-27T09:22:19.261Z,94.06
2019-04-27T09:23:18.825Z,94.06
2019-04-27T09:24:18.815Z,94.67
2019-04-27T09:25:19.332Z,94.77
2019-04-27T09:26:18.625Z,94.46
2019-04-27T09:27:19.745Z,94.36
2019-04-27T09:28:17.902Z,94.52
2019-04-27T09:29:17.886Z,94.46
2019-04-27T09:30:19.114Z,94.42
2019-04-27T09:31:19.502Z,93.91
2019-04-27T09:32:19.105Z,94.26
2019-04-27T09:33:17.841Z,93.85
2019-04-27T09:34:18.920Z,94.10
2019-04-27T09:35:17.818Z,94.81
2019-04-27T09:36:17.837Z,94.04
2019-04-27T09:37:17.809Z,95.84
2019-04-27T09:38:18.545Z,94.71
2019-04-27T09:39:17.781Z,95.43
2019-04-27T09:40:17.765Z,96.04
2019-04-27T09:41:17.771Z,95.53
2019-04-27T09:42:17.743Z,95.32
2019-04-27T09:43:17.739Z,95.63
2019-04-27T09:44:17.710Z,95.63
2019-04-27T09:45:17.707Z,96.04
2019-04-27T09:46:17.717Z,95.84
2019-04-27T09:47:17.718Z,95.84
2019-04-27T09:48:17.716Z,96.25
2019-04-27T09:49:17.668Z,96.86
2019-04-27T09:50:17.657Z,96.45
2019-04-27T09:51:17.669Z,96.66
2019-04-27T09:52:24.309Z,96.49
2019-04-27T09:53:18.616Z,96.39
2019-04-27T09:54:17.607Z,97.11
2019-04-27T09:55:17.597Z,97.92
2019-04-27T09:56:17.615Z,98.24
2019-04-27T09:57:17.604Z,98.03
2019-04-27T09:58:18.590Z,98.13
2019-04-27T09:59:17.556Z,97.72
2019-04-27T10:00:17.555Z,97.92
2019-04-27T10:01:18.110Z,98.03
2019-04-27T10:02:17.527Z,97.11
2019-04-27T10:03:17.521Z,96.91
2019-04-27T10:04:17.598Z,97.57
2019-04-27T10:05:17.488Z,98.19
2019-04-27T10:06:17.497Z,98.60
2019-04-27T10:07:17.465Z,98.55
2019-04-27T10:08:17.465Z,97.94
2019-04-27T10:09:17.449Z,97.94
2019-04-27T10:10:17.447Z,97.42
2019-04-27T10:11:17.468Z,96.81
2019-04-27T10:12:17.407Z,96.87
2019-04-27T10:13:17.399Z,96.97
2019-04-27T10:14:17.423Z,97.28
2019-04-27T10:15:17.398Z,97.64
2019-04-27T10:16:17.388Z,96.15
2019-04-27T10:17:17.358Z,96.26
2019-04-27T10:18:17.364Z,96.56
2019-04-27T10:19:28.241Z,96.46
2019-04-27T10:20:18.330Z,97.24
2019-04-27T10:21:17.348Z,94.82
2019-04-27T10:22:17.364Z,95.13
2019-04-27T10:23:17.308Z,95.50
2019-04-27T10:24:17.277Z,96.37
2019-04-27T10:25:17.281Z,95.25
2019-04-27T10:26:17.257Z,94.02
2019-04-27T10:27:17.263Z,94.49
2019-04-27T10:28:17.248Z,94.14
2019-04-27T10:29:17.247Z,92.42
2019-04-27T10:30:17.217Z,92.01
2019-04-27T10:31:17.213Z,91.44
2019-04-27T10:32:17.228Z,93.54
2019-04-27T10:33:17.197Z,92.83
2019-04-27T10:34:17.176Z,91.81
2019-04-27T10:35:17.169Z,91.55
2019-04-27T10:36:17.166Z,92.10
2019-04-27T10:37:17.139Z,91.94
2019-04-27T10:38:17.262Z,93.37
2019-04-27T10:39:17.140Z,93.77
2019-04-27T10:40:17.140Z,94.49
2019-04-27T10:41:17.099Z,94.43
2019-04-27T10:42:17.097Z,93.51
2019-04-27T10:43:17.098Z,94.53
2019-04-27T10:44:17.056Z,95.50
2019-04-27T10:45:17.060Z,95.60
2019-04-27T10:46:17.041Z,95.80
2019-04-27T10:47:17.040Z,96.42
2019-04-27T10:48:17.960Z,95.50
2019-04-27T10:49:17.018Z,94.93
2019-04-27T10:50:16.996Z,94.73
2019-04-27T10:51:16.982Z,96.05
2019-04-27T10:52:17.008Z,96.67
2019-04-27T10:53:17.056Z,95.59
2019-04-27T10:54:16.958Z,96.00
2019-04-27T10:55:16.950Z,91.89
2019-04-27T10:56:16.937Z,92.79
2019-04-27T10:57:16.987Z,92.27
2019-04-27T10:58:16.915Z,91.33
2019-04-27T10:59:16.907Z,92.70
2019-04-27T11:00:16.952Z,94.90
2019-04-27T11:01:16.880Z,94.59
2019-04-27T11:02:16.872Z,95.67
2019-04-27T11:03:16.889Z,96.28
2019-04-27T11:04:16.883Z,97.00
2019-04-27T11:05:16.859Z,97.82
2019-04-27T11:06:16.835Z,98.03
2019-04-27T11:07:16.858Z,97.52
2019-04-27T11:08:16.813Z,96.59
2019-04-27T11:09:16.818Z,96.80
2019-04-27T11:10:16.822Z,97.52
2019-04-27T11:11:16.779Z,97.72
2019-04-27T11:12:16.791Z,97.92
2019-04-27T11:13:16.816Z,98.29
2019-04-27T11:14:16.740Z,96.95
2019-04-27T11:15:16.740Z,96.55
2019-04-27T11:16:16.717Z,96.03
2019-04-27T11:17:16.718Z,94.76
2019-04-27T11:18:16.814Z,95.12
2019-04-27T11:19:17.032Z,94.10
2019-04-27T11:20:16.699Z,94.67
2019-04-27T11:21:16.686Z,93.64
2019-04-27T11:22:16.654Z,93.33
2019-04-27T11:23:16.656Z,92.72
2019-04-27T11:24:16.653Z,92.66
2019-04-27T11:25:16.644Z,92.55
2019-04-27T11:26:16.617Z,93.99
2019-04-27T11:27:16.602Z,94.55
2019-04-27T11:28:16.607Z,93.21
2019-04-27T11:29:16.576Z,94.96
2019-04-27T11:30:16.554Z,94.14
2019-04-27T11:31:17.264Z,95.27
2019-04-27T11:32:16.540Z,94.45
2019-04-27T11:33:16.661Z,94.85
2019-04-27T11:34:16.550Z,94.45
2019-04-27T11:35:16.505Z,95.23
2019-04-27T11:36:17.079Z,94.10
2019-04-27T11:37:16.566Z,94.81
2019-04-27T11:38:16.841Z,93.27
2019-04-27T11:39:19.645Z,92.72
2019-04-27T11:40:16.467Z,93.23
2019-04-27T11:41:16.434Z,93.02
2019-04-27T11:42:16.454Z,93.64
2019-04-27T11:43:16.456Z,94.42
2019-04-27T11:44:17.092Z,93.39
2019-04-27T11:45:16.422Z,92.68
2019-04-27T11:46:16.461Z,92.63
2019-04-27T11:47:16.389Z,92.28
2019-04-27T11:48:16.405Z,90.50
2019-04-27T11:49:16.348Z,92.50
2019-04-27T11:50:16.654Z,90.15
2019-04-27T11:51:17.415Z,88.65
2019-04-27T11:52:16.343Z,89.98
2019-04-27T11:53:22.726Z,90.91
2019-04-27T11:54:17.292Z,91.48
2019-04-27T11:55:16.292Z,89.12
2019-04-27T11:56:17.773Z,90.15
2019-04-27T11:57:16.277Z,89.64
2019-04-27T11:58:16.528Z,90.05
2019-04-27T11:59:16.277Z,89.53
2019-04-27T12:00:16.588Z,88.00
2019-04-27T12:01:16.215Z,91.07
2019-04-27T12:02:17.619Z,88.71
2019-04-27T12:03:16.681Z,89.23
2019-04-27T12:04:16.226Z,89.94
2019-04-27T12:05:16.197Z,89.68
2019-04-27T12:06:16.200Z,90.39
2019-04-27T12:07:16.180Z,88.76
2019-04-27T12:08:16.253Z,88.18
2019-04-27T12:09:16.167Z,88.08
2019-04-27T12:10:16.132Z,88.64
2019-04-27T12:11:16.120Z,90.79
2019-04-27T12:12:21.540Z,90.99
2019-04-27T12:13:17.101Z,90.48
2019-04-27T12:14:16.095Z,89.70
2019-04-27T12:15:16.261Z,90.01
2019-04-27T12:16:17.655Z,88.27
2019-04-27T12:17:16.525Z,89.50
2019-04-27T12:18:16.055Z,87.59
2019-04-27T12:19:16.403Z,89.23
2019-04-27T12:20:17.912Z,86.19
2019-04-27T12:21:16.004Z,87.84
2019-04-27T12:22:16.453Z,87.02
2019-04-27T12:23:16.489Z,87.79
2019-04-27T12:24:16.174Z,86.50
2019-04-27T12:25:15.952Z,86.19
2019-04-27T12:26:15.968Z,85.89
2019-04-27T12:27:16.001Z,85.99
2019-04-27T12:28:15.935Z,86.71
2019-04-27T12:29:16.228Z,86.50
2019-04-27T12:30:16.271Z,87.98
2019-04-27T12:31:16.369Z,86.95
2019-04-27T12:32:15.879Z,87.46
2019-04-27T12:33:15.902Z,88.08
2019-04-27T12:34:16.317Z,90.44
2019-04-27T12:35:16.636Z,89.15
2019-04-27T12:36:15.855Z,89.97
2019-04-27T12:37:15.849Z,89.50
2019-04-27T12:38:15.824Z,89.54
2019-04-27T12:39:15.812Z,91.91
2019-04-27T12:40:16.643Z,90.98
2019-04-27T12:41:15.834Z,92.93
2019-04-27T12:42:16.086Z,92.21
2019-04-27T12:43:15.796Z,94.11
2019-04-27T12:44:16.112Z,94.31
2019-04-27T12:45:17.978Z,93.08
2019-04-27T12:46:16.171Z,94.73
2019-04-27T12:47:16.333Z,94.01
2019-04-27T12:48:15.783Z,95.34
2019-04-27T12:49:16.161Z,95.92
2019-04-27T12:50:17.255Z,94.62
2019-04-27T12:51:15.728Z,95.03
2019-04-27T12:52:15.963Z,96.12